Time;durP1;ratioP1;P1;durP2;ratioP2;P2;SDS_P1;SDS_P2;PMS_P1;PMS_P2;Temp;Humidity;BMP_temperature;BMP_pressure;BME280_temperature;BME280_humidity;BME280_pressure;Samples;Min_cycle;Max_cycle;Signal;HPM_P1;HPM_P2
2022/11/10 00:00:22;;;;;;;17.63;4.65;;;;;;;;;;5035377;28;20045;-89
2022/11/10 00:02:48;;;;;;;17.67;4.72;;;;;;;;;;5034521;28;20084;-89
2022/11/10 00:05:15;;;;;;;18.73;4.97;;;;;;;;;;5035620;28;20054;-88
2022/11/10 00:07:41;;;;;;;20.35;5.38;;;;;;;;;;5036689;28;20450;-88
2022/11/10 00:10:07;;;;;;;18.13;5.25;;;;;;;;;;5032246;28;20053;-88
2022/11/10 00:12:34;;;;;;;20.00;5.28;;;;;;;;;;5017223;28;20046;-89
2022/11/10 00:17:45;;;;;;;19.67;5.60;;;;;;;;;;5036717;28;20057;-89
2022/11/10 00:20:12;;;;;;;18.27;5.65;;;;;;;;;;5036277;28;20053;-89
2022/11/10 00:22:38;;;;;;;19.60;5.68;;;;;;;;;;5018867;28;20049;-89
2022/11/10 00:25:05;;;;;;;20.65;5.60;;;;;;;;;;5040055;28;20049;-89
2022/11/10 00:27:31;;;;;;;23.77;5.75;;;;;;;;;;5032567;28;20044;-89
2022/11/10 00:29:57;;;;;;;25.27;5.65;;;;;;;;;;5032429;28;20041;-90
2022/11/10 00:32:23;;;;;;;21.95;6.05;;;;;;;;;;5035017;28;20077;-89
2022/11/10 00:34:49;;;;;;;21.10;5.72;;;;;;;;;;5034033;28;20042;-89
2022/11/10 00:37:15;;;;;;;21.55;6.18;;;;;;;;;;5034774;28;20107;-89
2022/11/10 00:39:41;;;;;;;27.13;7.10;;;;;;;;;;5032705;28;20088;-89
2022/11/10 00:42:07;;;;;;;23.80;5.78;;;;;;;;;;5001316;28;20107;-90
2022/11/10 00:44:33;;;;;;;16.55;5.63;;;;;;;;;;5016419;28;20077;-90
2022/11/10 00:47:00;;;;;;;21.88;6.00;;;;;;;;;;5035034;28;20123;-89
2022/11/10 00:49:26;;;;;;;27.20;6.68;;;;;;;;;;5033626;28;20448;-89
2022/11/10 00:51:52;;;;;;;20.33;6.22;;;;;;;;;;5033749;28;20048;-89
2022/11/10 00:54:18;;;;;;;21.30;7.13;;;;;;;;;;5034453;28;20096;-89
2022/11/10 00:56:44;;;;;;;22.70;7.15;;;;;;;;;;5034733;28;20069;-89
2022/11/10 00:59:10;;;;;;;21.70;6.57;;;;;;;;;;5057095;28;20021;-89
2022/11/10 01:01:36;;;;;;;21.17;6.68;;;;;;;;;;5047337;28;20038;-89
2022/11/10 01:04:02;;;;;;;20.08;6.75;;;;;;;;;;5033023;28;20400;-89
2022/11/10 01:06:28;;;;;;;23.58;7.65;;;;;;;;;;5032612;28;20527;-89
2022/11/10 01:08:54;;;;;;;23.38;7.72;;;;;;;;;;5031524;28;20386;-89
2022/11/10 01:11:22;;;;;;;21.23;7.53;;;;;;;;;;5033803;28;20099;-89
2022/11/10 01:13:49;;;;;;;23.08;7.93;;;;;;;;;;5030073;28;20443;-89
2022/11/10 01:16:18;;;;;;;23.92;8.80;;;;;;;;;;5032460;28;20084;-89
2022/11/10 01:18:48;;;;;;;27.38;7.90;;;;;;;;;;5033424;28;20096;-90
2022/11/10 01:21:14;;;;;;;22.17;7.72;;;;;;;;;;5016648;28;20041;-90
2022/11/10 01:23:40;;;;;;;24.02;7.95;;;;;;;;;;5031582;28;20071;-88
2022/11/10 01:26:07;;;;;;;23.30;8.05;;;;;;;;;;5032847;28;20045;-88
2022/11/10 01:28:34;;;;;;;22.75;7.60;;;;;;;;;;5031636;28;20041;-89
2022/11/10 01:31:07;;;;;;;23.52;8.50;;;;;;;;;;5032791;28;20378;-88
2022/11/10 01:33:34;;;;;;;31.20;9.13;;;;;;;;;;5032992;28;20056;-89
2022/11/10 01:36:00;;;;;;;27.13;8.65;;;;;;;;;;5031919;28;20488;-89
2022/11/10 01:38:27;;;;;;;23.23;8.27;;;;;;;;;;5032196;28;20124;-89
2022/11/10 01:40:53;;;;;;;27.23;7.63;;;;;;;;;;5031860;28;20377;-89
2022/11/10 01:43:19;;;;;;;23.45;7.68;;;;;;;;;;5013629;28;20041;-89
2022/11/10 01:45:50;;;;;;;25.48;8.50;;;;;;;;;;5033592;28;20049;-88
2022/11/10 01:48:29;;;;;;;23.80;7.80;;;;;;;;;;5015977;28;20046;-89
2022/11/10 01:50:58;;;;;;;21.10;7.70;;;;;;;;;;4997502;28;20128;-89
2022/11/10 01:53:26;;;;;;;26.67;8.63;;;;;;;;;;5025034;28;20038;-89
2022/11/10 01:55:53;;;;;;;24.13;8.60;;;;;;;;;;5016681;28;20049;-88
2022/11/10 01:58:22;;;;;;;25.30;7.93;;;;;;;;;;5032014;28;20053;-88
2022/11/10 02:00:48;;;;;;;24.38;7.75;;;;;;;;;;5015122;28;20052;-89
2022/11/10 02:03:29;;;;;;;19.95;7.80;;;;;;;;;;5014889;28;20476;-89
2022/11/10 02:05:56;;;;;;;25.02;8.55;;;;;;;;;;5033373;28;20069;-89
2022/11/10 02:08:23;;;;;;;25.15;7.47;;;;;;;;;;5030727;28;20050;-89
2022/11/10 02:10:49;;;;;;;24.35;8.63;;;;;;;;;;5032478;28;20088;-89
2022/11/10 02:13:15;;;;;;;26.80;8.68;;;;;;;;;;5032101;28;20041;-89
2022/11/10 02:15:42;;;;;;;32.15;8.35;;;;;;;;;;5033987;28;20382;-89
2022/11/10 02:18:08;;;;;;;23.17;7.78;;;;;;;;;;5033625;28;20079;-89
2022/11/10 02:20:34;;;;;;;22.90;7.20;;;;;;;;;;4998333;28;20471;-89
2022/11/10 02:23:10;;;;;;;23.85;8.27;;;;;;;;;;5031404;28;20045;-89
2022/11/10 02:25:36;;;;;;;25.45;8.00;;;;;;;;;;5024923;28;20049;-89
2022/11/10 02:28:02;;;;;;;27.60;7.68;;;;;;;;;;5032486;28;20060;-89
2022/11/10 02:30:28;;;;;;;24.38;7.45;;;;;;;;;;5033183;28;20042;-89
2022/11/10 02:32:54;;;;;;;21.77;8.02;;;;;;;;;;5014302;28;20077;-89
2022/11/10 02:35:20;;;;;;;23.98;7.15;;;;;;;;;;5032036;28;20647;-88
2022/11/10 02:37:46;;;;;;;26.02;8.05;;;;;;;;;;5014314;28;20042;-88
2022/11/10 02:40:12;;;;;;;23.60;7.28;;;;;;;;;;5031742;28;20501;-89
2022/11/10 02:42:38;;;;;;;21.35;6.78;;;;;;;;;;5031835;28;20037;-88
2022/11/10 02:45:04;;;;;;;25.27;7.20;;;;;;;;;;5032643;28;20124;-88
2022/11/10 02:47:30;;;;;;;22.77;7.28;;;;;;;;;;5032608;28;20051;-88
2022/11/10 02:49:56;;;;;;;27.08;6.90;;;;;;;;;;5031616;28;20041;-89
2022/11/10 02:52:22;;;;;;;27.33;7.40;;;;;;;;;;5033203;28;20040;-88
2022/11/10 02:54:48;;;;;;;22.20;6.47;;;;;;;;;;5015209;28;20116;-88
2022/11/10 02:57:14;;;;;;;25.13;6.85;;;;;;;;;;5032319;28;20081;-88
2022/11/10 02:59:40;;;;;;;26.75;7.20;;;;;;;;;;5031745;28;20099;-88
2022/11/10 03:02:06;;;;;;;22.80;7.40;;;;;;;;;;5035286;28;20045;-88
2022/11/10 03:04:32;;;;;;;22.83;7.57;;;;;;;;;;5018296;28;20049;-87
2022/11/10 03:06:58;;;;;;;27.02;7.90;;;;;;;;;;5037320;28;20065;-88
2022/11/10 03:09:24;;;;;;;22.52;7.32;;;;;;;;;;5035397;28;20152;-89
2022/11/10 03:11:50;;;;;;;25.02;7.97;;;;;;;;;;5037645;28;20038;-88
2022/11/10 03:14:16;;;;;;;23.08;8.52;;;;;;;;;;5036248;28;20041;-89
2022/11/10 03:16:45;;;;;;;23.67;8.10;;;;;;;;;;5037061;28;20052;-89
2022/11/10 03:19:11;;;;;;;26.50;7.90;;;;;;;;;;5036986;28;20038;-88
2022/11/10 03:21:37;;;;;;;26.42;9.10;;;;;;;;;;5026765;28;20044;-88
2022/11/10 03:24:03;;;;;;;21.52;8.00;;;;;;;;;;5061100;28;20092;-88
2022/11/10 03:26:29;;;;;;;18.60;8.60;;;;;;;;;;5038621;28;20094;-89
2022/11/10 03:28:55;;;;;;;26.10;9.05;;;;;;;;;;5035266;28;20045;-89
2022/11/10 03:31:21;;;;;;;28.35;10.10;;;;;;;;;;5036475;28;20045;-89
2022/11/10 03:33:47;;;;;;;26.63;8.90;;;;;;;;;;5035829;28;20047;-88
2022/11/10 03:36:13;;;;;;;30.48;8.82;;;;;;;;;;5018239;28;20046;-88
2022/11/10 03:38:39;;;;;;;30.73;10.50;;;;;;;;;;5012516;28;20132;-89
2022/11/10 03:41:05;;;;;;;29.80;11.43;;;;;;;;;;5035394;28;20493;-88
2022/11/10 03:43:31;;;;;;;27.33;9.07;;;;;;;;;;5017895;28;20053;-89
2022/11/10 03:45:57;;;;;;;25.50;10.07;;;;;;;;;;5036450;28;20551;-89
2022/11/10 03:48:23;;;;;;;36.17;12.30;;;;;;;;;;5032327;28;20103;-89
2022/11/10 03:50:49;;;;;;;34.38;11.52;;;;;;;;;;5018585;28;20445;-89
2022/11/10 03:53:15;;;;;;;26.52;10.85;;;;;;;;;;5016757;28;20045;-89
2022/11/10 03:55:41;;;;;;;31.48;11.48;;;;;;;;;;5026329;28;20038;-89
2022/11/10 03:58:07;;;;;;;30.65;12.65;;;;;;;;;;5011756;28;20053;-90
2022/11/10 04:00:33;;;;;;;28.30;12.73;;;;;;;;;;5018730;28;20556;-89
2022/11/10 04:02:59;;;;;;;33.60;11.88;;;;;;;;;;5034204;28;20042;-89
2022/11/10 04:10:59;;;;;;;30.95;12.65;;;;;;;;;;5035135;28;20073;-89
2022/11/10 04:16:10;;;;;;;28.85;13.23;;;;;;;;;;5016775;28;20058;-88
2022/11/10 04:18:36;;;;;;;32.70;13.20;;;;;;;;;;5021313;28;20049;-89
2022/11/10 04:21:02;;;;;;;36.78;13.57;;;;;;;;;;5023917;28;20064;-89
2022/11/10 04:23:33;;;;;;;35.38;14.02;;;;;;;;;;5024612;28;20051;-88
2022/11/10 04:28:53;;;;;;;36.00;13.77;;;;;;;;;;5022891;28;20049;-89
2022/11/10 04:31:20;;;;;;;35.60;13.52;;;;;;;;;;5043828;28;20052;-89
2022/11/10 04:33:46;;;;;;;30.58;11.82;;;;;;;;;;5040558;28;20064;-88
2022/11/10 04:36:14;;;;;;;34.28;13.15;;;;;;;;;;5046858;28;20048;-88
2022/11/10 04:38:40;;;;;;;33.58;12.57;;;;;;;;;;5023350;28;20051;-89
2022/11/10 04:41:06;;;;;;;35.75;13.23;;;;;;;;;;5025804;28;20077;-89
2022/11/10 04:43:32;;;;;;;33.83;13.30;;;;;;;;;;5023625;28;20058;-88
2022/11/10 04:45:59;;;;;;;29.65;12.07;;;;;;;;;;5017056;28;20071;-89
2022/11/10 04:48:26;;;;;;;29.98;11.85;;;;;;;;;;5024234;28;20053;-89
2022/11/10 04:50:52;;;;;;;34.13;13.18;;;;;;;;;;5036463;28;20139;-89
2022/11/10 04:53:18;;;;;;;33.05;12.98;;;;;;;;;;5020222;28;20128;-89
2022/11/10 04:55:45;;;;;;;38.30;14.63;;;;;;;;;;5031142;28;20045;-89
2022/11/10 04:58:11;;;;;;;29.85;13.65;;;;;;;;;;5034072;28;20050;-89
2022/11/10 05:00:37;;;;;;;36.63;15.25;;;;;;;;;;5035532;28;20129;-88
2022/11/10 05:03:04;;;;;;;35.88;15.23;;;;;;;;;;5035592;28;20044;-89
2022/11/10 05:05:30;;;;;;;40.58;15.45;;;;;;;;;;5034594;28;20120;-89
2022/11/10 05:07:56;;;;;;;41.22;17.00;;;;;;;;;;5032273;28;20048;-89
2022/11/10 05:10:23;;;;;;;45.03;17.55;;;;;;;;;;5030766;28;20042;-90
2022/11/10 05:12:49;;;;;;;42.95;17.35;;;;;;;;;;5023011;28;22041;-89
2022/11/10 05:15:15;;;;;;;33.58;16.05;;;;;;;;;;5034691;28;20042;-89
2022/11/10 05:17:41;;;;;;;39.13;17.20;;;;;;;;;;5033299;28;20501;-89
2022/11/10 05:20:07;;;;;;;41.30;17.77;;;;;;;;;;5031625;28;20132;-88
2022/11/10 05:22:33;;;;;;;41.55;19.20;;;;;;;;;;5023069;28;20121;-89
2022/11/10 05:24:59;;;;;;;35.10;17.25;;;;;;;;;;5028759;28;20042;-89
2022/11/10 05:27:25;;;;;;;40.47;18.77;;;;;;;;;;5033355;28;20080;-88
2022/11/10 05:29:51;;;;;;;46.88;20.30;;;;;;;;;;5012752;28;20080;-88
2022/11/10 05:32:17;;;;;;;43.63;20.90;;;;;;;;;;5034788;28;20046;-88
2022/11/10 05:34:43;;;;;;;40.90;19.13;;;;;;;;;;5032113;28;21188;-88
2022/11/10 05:37:09;;;;;;;46.80;20.58;;;;;;;;;;5032916;28;20072;-89
2022/11/10 05:39:35;;;;;;;41.50;19.27;;;;;;;;;;5033347;28;20045;-88
2022/11/10 05:42:01;;;;;;;43.90;20.27;;;;;;;;;;5041837;28;20092;-88
2022/11/10 05:44:27;;;;;;;48.25;21.08;;;;;;;;;;5057312;28;20041;-89
2022/11/10 05:46:53;;;;;;;42.47;20.17;;;;;;;;;;5050731;28;20526;-88
2022/11/10 05:49:19;;;;;;;44.33;20.30;;;;;;;;;;5017552;28;20050;-88
2022/11/10 05:51:45;;;;;;;50.50;20.30;;;;;;;;;;5015802;28;20048;-88
2022/11/10 05:54:11;;;;;;;48.72;21.23;;;;;;;;;;4998853;28;20088;-86
2022/11/10 05:56:37;;;;;;;45.30;21.05;;;;;;;;;;5011806;28;20116;-87
2022/11/10 05:59:03;;;;;;;45.40;21.33;;;;;;;;;;5014746;28;20125;-87
2022/11/10 06:01:29;;;;;;;45.03;21.55;;;;;;;;;;5033572;28;20408;-87
2022/11/10 06:03:55;;;;;;;43.85;19.92;;;;;;;;;;5031977;28;20054;-88
2022/11/10 06:06:21;;;;;;;46.30;20.15;;;;;;;;;;5032014;28;20044;-88
2022/11/10 06:08:48;;;;;;;47.83;21.42;;;;;;;;;;5031899;28;20088;-88
2022/11/10 06:11:14;;;;;;;46.40;22.08;;;;;;;;;;5030185;28;20076;-89
2022/11/10 06:13:40;;;;;;;47.60;22.52;;;;;;;;;;5031965;28;20061;-89
2022/11/10 06:16:06;;;;;;;47.40;21.08;;;;;;;;;;5032094;28;20053;-88
2022/11/10 06:18:32;;;;;;;47.70;20.50;;;;;;;;;;5032399;28;20583;-87
2022/11/10 06:20:58;;;;;;;44.58;19.45;;;;;;;;;;5015409;28;20057;-87
2022/11/10 06:23:24;;;;;;;45.03;20.25;;;;;;;;;;4997002;28;20052;-86
2022/11/10 06:25:50;;;;;;;40.35;19.88;;;;;;;;;;5013711;28;20042;-88
2022/11/10 06:28:16;;;;;;;54.45;22.48;;;;;;;;;;5031188;28;20056;-89
2022/11/10 06:30:42;;;;;;;45.80;20.27;;;;;;;;;;5033269;28;20042;-89
2022/11/10 06:33:08;;;;;;;49.92;20.45;;;;;;;;;;5032673;28;20051;-89
2022/11/10 06:35:34;;;;;;;42.35;21.38;;;;;;;;;;5033891;28;20047;-88
2022/11/10 06:38:09;;;;;;;45.17;19.42;;;;;;;;;;5017088;28;20504;-88
2022/11/10 06:40:35;;;;;;;36.13;18.60;;;;;;;;;;5035953;28;20042;-88
2022/11/10 06:43:01;;;;;;;41.60;19.40;;;;;;;;;;5035191;28;20492;-87
2022/11/10 06:45:28;;;;;;;38.50;19.80;;;;;;;;;;5034656;28;20133;-88
2022/11/10 06:48:04;;;;;;;42.25;17.70;;;;;;;;;;5035529;28;20037;-89
2022/11/10 06:50:31;;;;;;;37.83;19.05;;;;;;;;;;5016604;28;20055;-89
2022/11/10 06:52:57;;;;;;;43.83;20.08;;;;;;;;;;5033185;28;20096;-88
2022/11/10 06:55:23;;;;;;;41.85;18.67;;;;;;;;;;5017012;28;20041;-89
2022/11/10 06:57:50;;;;;;;35.35;17.48;;;;;;;;;;5015874;28;20049;-89
2022/11/10 07:00:16;;;;;;;32.83;17.13;;;;;;;;;;5035659;28;20084;-88
2022/11/10 07:02:42;;;;;;;41.38;18.60;;;;;;;;;;5034238;28;20037;-88
2022/11/10 07:05:08;;;;;;;37.13;17.85;;;;;;;;;;5014900;28;20094;-89
2022/11/10 07:07:34;;;;;;;37.35;17.58;;;;;;;;;;5014007;28;20172;-88
2022/11/10 07:10:00;;;;;;;40.00;17.23;;;;;;;;;;5035852;28;20124;-88
2022/11/10 07:12:26;;;;;;;39.17;17.92;;;;;;;;;;5015996;28;20038;-89
2022/11/10 07:14:52;;;;;;;41.30;17.90;;;;;;;;;;5031159;28;20053;-90
2022/11/10 07:17:18;;;;;;;39.53;16.92;;;;;;;;;;5034334;28;20137;-90
2022/11/10 07:19:44;;;;;;;38.38;16.45;;;;;;;;;;5035249;28;20052;-89
2022/11/10 07:22:10;;;;;;;43.90;17.88;;;;;;;;;;5033544;28;20145;-90
2022/11/10 07:24:36;;;;;;;38.65;16.67;;;;;;;;;;5036056;28;20073;-91
2022/11/10 07:27:02;;;;;;;39.17;17.70;;;;;;;;;;5036403;28;20408;-89
2022/11/10 07:29:28;;;;;;;38.30;17.42;;;;;;;;;;5033774;28;20099;-89
2022/11/10 07:31:54;;;;;;;38.03;17.20;;;;;;;;;;5036308;28;20480;-89
2022/11/10 07:34:20;;;;;;;43.00;17.10;;;;;;;;;;5038019;28;20093;-89
2022/11/10 07:36:46;;;;;;;41.33;17.17;;;;;;;;;;5035378;28;20038;-89
2022/11/10 07:39:12;;;;;;;35.63;16.15;;;;;;;;;;5032446;28;20042;-89
2022/11/10 07:41:38;;;;;;;25.38;15.20;;;;;;;;;;5034776;28;20492;-88
2022/11/10 07:44:04;;;;;;;37.80;16.55;;;;;;;;;;5036157;28;20061;-89
2022/11/10 07:46:30;;;;;;;36.92;15.50;;;;;;;;;;5035779;28;20068;-89
2022/11/10 07:48:56;;;;;;;30.92;16.02;;;;;;;;;;5015466;28;20426;-89
2022/11/10 07:51:22;;;;;;;36.08;14.50;;;;;;;;;;5017057;28;20048;-89
2022/11/10 07:53:48;;;;;;;32.88;14.77;;;;;;;;;;5034554;28;20050;-89
2022/11/10 07:56:14;;;;;;;29.85;14.25;;;;;;;;;;5035654;28;20044;-90
2022/11/10 07:58:40;;;;;;;34.13;13.48;;;;;;;;;;5034245;28;20749;-90
2022/11/10 08:01:06;;;;;;;33.58;15.48;;;;;;;;;;5017986;28;20085;-90
2022/11/10 08:03:32;;;;;;;32.13;14.20;;;;;;;;;;5034378;28;20045;-90
2022/11/10 08:05:58;;;;;;;28.48;14.88;;;;;;;;;;5040024;28;20061;-90
2022/11/10 08:08:24;;;;;;;33.67;14.55;;;;;;;;;;5056764;28;20052;-90
2022/11/10 08:10:50;;;;;;;32.97;13.90;;;;;;;;;;5017871;28;20405;-90
2022/11/10 08:13:17;;;;;;;37.67;15.05;;;;;;;;;;5015979;28;20473;-90
2022/11/10 08:15:43;;;;;;;30.52;13.98;;;;;;;;;;5031450;28;20041;-87
2022/11/10 08:18:12;;;;;;;33.08;14.52;;;;;;;;;;5033612;28;20053;-87
2022/11/10 08:20:38;;;;;;;35.25;14.35;;;;;;;;;;5015342;28;20072;-88
2022/11/10 08:23:05;;;;;;;35.28;14.48;;;;;;;;;;4981373;28;20145;-88
2022/11/10 08:25:32;;;;;;;38.50;15.00;;;;;;;;;;5013007;28;20554;-89
2022/11/10 08:28:06;;;;;;;30.63;14.45;;;;;;;;;;5001418;28;20046;-88
2022/11/10 08:30:33;;;;;;;33.33;14.40;;;;;;;;;;5032659;28;20195;-88
2022/11/10 08:33:00;;;;;;;37.17;13.60;;;;;;;;;;5033851;28;20091;-88
2022/11/10 08:35:28;;;;;;;31.15;13.00;;;;;;;;;;5016519;28;20037;-88
2022/11/10 08:37:54;;;;;;;34.13;13.43;;;;;;;;;;5016167;28;20050;-88
2022/11/10 08:40:20;;;;;;;35.72;13.43;;;;;;;;;;5033806;28;20068;-88
2022/11/10 08:42:47;;;;;;;29.58;12.52;;;;;;;;;;5032957;28;20171;-88
2022/11/10 08:45:13;;;;;;;27.40;12.70;;;;;;;;;;5032677;28;20045;-89
2022/11/10 08:47:39;;;;;;;35.85;13.57;;;;;;;;;;5033251;28;20120;-87
2022/11/10 08:50:06;;;;;;;31.67;13.63;;;;;;;;;;5034255;28;20076;-87
2022/11/10 08:52:32;;;;;;;30.90;13.30;;;;;;;;;;5015561;28;20404;-87
2022/11/10 08:54:58;;;;;;;29.27;12.55;;;;;;;;;;5033402;28;20400;-88
2022/11/10 08:57:24;;;;;;;28.30;12.32;;;;;;;;;;5031936;28;20045;-88
2022/11/10 08:59:50;;;;;;;31.02;11.95;;;;;;;;;;5035168;28;20042;-89
2022/11/10 09:02:16;;;;;;;34.40;12.57;;;;;;;;;;5033744;28;20124;-88
2022/11/10 09:04:42;;;;;;;28.10;12.45;;;;;;;;;;5030441;28;20060;-88
2022/11/10 09:07:08;;;;;;;29.55;11.43;;;;;;;;;;5031220;28;20132;-88
2022/11/10 09:09:34;;;;;;;30.33;11.88;;;;;;;;;;5030666;28;20049;-89
2022/11/10 09:12:00;;;;;;;29.50;10.98;;;;;;;;;;5014658;28;20107;-87
2022/11/10 09:14:26;;;;;;;23.15;10.35;;;;;;;;;;5032609;28;20052;-86
2022/11/10 09:16:52;;;;;;;26.48;10.73;;;;;;;;;;5015297;28;20053;-87
2022/11/10 09:19:19;;;;;;;30.38;10.65;;;;;;;;;;5033944;28;20068;-87
2022/11/10 09:21:45;;;;;;;29.63;11.38;;;;;;;;;;5032617;28;20052;-89
2022/11/10 09:24:11;;;;;;;29.63;11.18;;;;;;;;;;5032100;28;20056;-88
2022/11/10 09:26:38;;;;;;;34.03;10.82;;;;;;;;;;5032730;28;20053;-88
2022/11/10 09:29:04;;;;;;;30.95;11.15;;;;;;;;;;5015757;28;20412;-88
2022/11/10 09:31:30;;;;;;;28.30;9.85;;;;;;;;;;5031640;28;20046;-88
2022/11/10 09:33:58;;;;;;;25.80;10.32;;;;;;;;;;5032696;28;20149;-87
2022/11/10 09:36:24;;;;;;;25.73;9.52;;;;;;;;;;5032960;28;20095;-88
2022/11/10 09:38:50;;;;;;;26.60;9.38;;;;;;;;;;5033707;28;20085;-87
2022/11/10 09:41:17;;;;;;;27.58;9.50;;;;;;;;;;5032901;28;20104;-87
2022/11/10 09:43:49;;;;;;;24.80;8.80;;;;;;;;;;5031531;28;20099;-85
2022/11/10 09:46:17;;;;;;;25.65;8.80;;;;;;;;;;5032998;28;20037;-87
2022/11/10 09:48:47;;;;;;;24.80;8.82;;;;;;;;;;5033364;28;20045;-88
2022/11/10 09:51:19;;;;;;;31.30;9.07;;;;;;;;;;5033969;28;20048;-85
2022/11/10 09:53:50;;;;;;;24.92;7.63;;;;;;;;;;5031611;28;20042;-85
2022/11/10 09:56:18;;;;;;;22.08;7.47;;;;;;;;;;5032409;28;20128;-86
2022/11/10 09:58:45;;;;;;;30.30;7.53;;;;;;;;;;5012162;28;20045;-86
2022/11/10 10:01:14;;;;;;;23.70;7.30;;;;;;;;;;5027507;28;20046;-86
2022/11/10 10:03:46;;;;;;;27.48;7.60;;;;;;;;;;5013872;28;20041;-85
2022/11/10 10:06:13;;;;;;;26.33;7.68;;;;;;;;;;5033611;28;20049;-86
2022/11/10 10:08:58;;;;;;;24.05;7.07;;;;;;;;;;5032397;28;20052;-87
2022/11/10 10:11:43;;;;;;;32.78;7.68;;;;;;;;;;5015253;28;20045;-86
2022/11/10 10:14:17;;;;;;;31.42;7.43;;;;;;;;;;5013464;28;20121;-86
2022/11/10 10:16:47;;;;;;;28.38;7.25;;;;;;;;;;5012653;28;20053;-85
2022/11/10 10:19:32;;;;;;;25.08;6.53;;;;;;;;;;5033071;28;20139;-85
2022/11/10 10:22:08;;;;;;;24.88;5.65;;;;;;;;;;5031981;28;20110;-85
2022/11/10 10:24:34;;;;;;;23.00;5.50;;;;;;;;;;5029710;28;20053;-86
2022/11/10 10:27:03;;;;;;;30.98;6.28;;;;;;;;;;5033960;28;20045;-85
2022/11/10 10:29:45;;;;;;;18.95;5.03;;;;;;;;;;5038692;28;20045;-85
2022/11/10 10:32:12;;;;;;;27.77;6.00;;;;;;;;;;5035472;28;20081;-85
2022/11/10 10:34:39;;;;;;;24.75;5.40;;;;;;;;;;5013011;28;20064;-84
2022/11/10 10:37:05;;;;;;;21.60;5.35;;;;;;;;;;5012981;28;20053;-85
2022/11/10 10:39:36;;;;;;;20.88;5.40;;;;;;;;;;5029780;28;20046;-85
2022/11/10 10:42:06;;;;;;;23.98;5.05;;;;;;;;;;5032029;28;20041;-86
2022/11/10 10:44:32;;;;;;;21.10;5.82;;;;;;;;;;5031448;28;20045;-86
2022/11/10 10:46:59;;;;;;;19.27;5.47;;;;;;;;;;5031710;28;20057;-85
2022/11/10 10:49:30;;;;;;;23.98;5.25;;;;;;;;;;5013666;28;20053;-87
2022/11/10 10:52:26;;;;;;;24.70;5.07;;;;;;;;;;5030841;28;20042;-85
2022/11/10 10:55:05;;;;;;;18.08;4.82;;;;;;;;;;4998091;28;20057;-85
2022/11/10 10:57:31;;;;;;;20.05;5.25;;;;;;;;;;5031507;28;20049;-87
2022/11/10 11:00:29;;;;;;;21.02;4.75;;;;;;;;;;5011475;28;20041;-85
2022/11/10 11:03:02;;;;;;;23.92;4.85;;;;;;;;;;4988834;28;20054;-85
2022/11/10 11:05:28;;;;;;;19.08;4.63;;;;;;;;;;5033709;28;20053;-85
2022/11/10 11:07:55;;;;;;;21.77;5.10;;;;;;;;;;5031428;28;20480;-85
2022/11/10 11:10:26;;;;;;;19.27;4.55;;;;;;;;;;5030095;28;20132;-85
2022/11/10 11:12:52;;;;;;;23.20;5.55;;;;;;;;;;5027023;28;20091;-86
2022/11/10 11:15:27;;;;;;;25.67;6.00;;;;;;;;;;5027564;28;20049;-86
2022/11/10 11:17:54;;;;;;;19.60;5.80;;;;;;;;;;5030601;28;20073;-85
2022/11/10 11:20:26;;;;;;;23.60;5.20;;;;;;;;;;5013219;28;20050;-85
2022/11/10 11:22:56;;;;;;;19.90;5.60;;;;;;;;;;5032771;28;20060;-84
2022/11/10 11:25:27;;;;;;;26.73;4.90;;;;;;;;;;5033989;28;20041;-86
2022/11/10 11:28:03;;;;;;;23.40;4.63;;;;;;;;;;5026792;28;20045;-87
2022/11/10 11:30:37;;;;;;;22.23;5.18;;;;;;;;;;5033695;28;20042;-86
2022/11/10 11:33:12;;;;;;;25.10;4.90;;;;;;;;;;5035117;28;20052;-86
2022/11/10 11:35:41;;;;;;;23.02;5.20;;;;;;;;;;5034607;28;20051;-86
2022/11/10 11:38:14;;;;;;;26.13;5.20;;;;;;;;;;5035462;28;20516;-86
2022/11/10 11:40:53;;;;;;;25.85;4.47;;;;;;;;;;5031493;28;20095;-86
2022/11/10 11:43:38;;;;;;;21.33;4.72;;;;;;;;;;5032396;28;20042;-85
2022/11/10 11:46:04;;;;;;;22.05;5.00;;;;;;;;;;5025739;28;20464;-84
2022/11/10 11:48:51;;;;;;;24.67;4.32;;;;;;;;;;5032268;28;20527;-86
2022/11/10 11:51:30;;;;;;;20.33;4.75;;;;;;;;;;5032545;28;20076;-86
2022/11/10 11:54:05;;;;;;;23.10;5.25;;;;;;;;;;5033932;28;20436;-85
2022/11/10 11:56:37;;;;;;;28.95;5.15;;;;;;;;;;5015410;28;20049;-86
2022/11/10 11:59:28;;;;;;;20.52;5.30;;;;;;;;;;5014742;28;20071;-86
2022/11/10 12:02:02;;;;;;;23.50;4.65;;;;;;;;;;5035114;28;20049;-86
2022/11/10 12:04:34;;;;;;;30.58;5.43;;;;;;;;;;5032769;28;20048;-85
2022/11/10 12:07:15;;;;;;;19.67;4.40;;;;;;;;;;5032636;28;20037;-86
2022/11/10 12:09:42;;;;;;;;;;;;;;;;;;5033746;28;20049;-86
2022/11/10 12:12:08;;;;;;;20.52;4.28;;;;;;;;;;5033585;28;20071;-85
2022/11/10 12:14:34;;;;;;;20.83;4.57;;;;;;;;;;5012912;28;20045;-86
2022/11/10 12:17:15;;;;;;;25.50;4.97;;;;;;;;;;5034475;28;20060;-86
2022/11/10 12:19:55;;;;;;;22.35;4.32;;;;;;;;;;5032904;28;20050;-85
2022/11/10 12:22:39;;;;;;;23.20;4.17;;;;;;;;;;5030688;28;20056;-84
2022/11/10 12:25:11;;;;;;;21.30;4.38;;;;;;;;;;5033042;28;20040;-85
2022/11/10 12:27:40;;;;;;;18.95;3.88;;;;;;;;;;5033931;28;20101;-86
2022/11/10 12:30:10;;;;;;;32.67;5.32;;;;;;;;;;5034011;28;20045;-85
2022/11/10 12:32:36;;;;;;;21.08;4.60;;;;;;;;;;5033437;28;20041;-85
2022/11/10 12:35:07;;;;;;;28.63;4.63;;;;;;;;;;4996742;28;20057;-84
2022/11/10 12:37:59;;;;;;;22.40;4.70;;;;;;;;;;4997192;28;20057;-85
2022/11/10 12:40:28;;;;;;;25.35;4.85;;;;;;;;;;4990605;28;20128;-85
2022/11/10 12:43:01;;;;;;;20.77;4.35;;;;;;;;;;5015203;28;20053;-86
2022/11/10 12:45:33;;;;;;;20.20;3.90;;;;;;;;;;5013710;28;20053;-84
2022/11/10 12:48:00;;;;;;;19.70;3.92;;;;;;;;;;5000542;28;20152;-83
2022/11/10 12:50:29;;;;;;;24.52;4.35;;;;;;;;;;5039427;28;20424;-84
2022/11/10 12:53:05;;;;;;;22.02;5.28;;;;;;;;;;5041551;28;20037;-85
2022/11/10 12:55:36;;;;;;;20.10;4.07;;;;;;;;;;5032781;28;20095;-85
2022/11/10 12:58:03;;;;;;;16.95;3.28;;;;;;;;;;5012048;28;20046;-85
2022/11/10 13:00:37;;;;;;;21.30;3.50;;;;;;;;;;5030145;28;20103;-84
2022/11/10 13:03:03;;;;;;;21.52;3.28;;;;;;;;;;5033901;28;20045;-84
2022/11/10 13:05:31;;;;;;;26.63;3.78;;;;;;;;;;5032217;28;20049;-85
2022/11/10 13:08:26;;;;;;;25.92;3.92;;;;;;;;;;5030214;28;20531;-86
2022/11/10 13:10:57;;;;;;;29.98;4.82;;;;;;;;;;4991853;28;20050;-85
2022/11/10 13:13:23;;;;;;;29.40;4.32;;;;;;;;;;5031256;28;20041;-84
2022/11/10 13:15:51;;;;;;;23.45;3.17;;;;;;;;;;5010802;28;20076;-86
2022/11/10 13:18:23;;;;;;;19.73;2.97;;;;;;;;;;5031891;28;20056;-85
2022/11/10 13:20:51;;;;;;;21.92;3.65;;;;;;;;;;5032102;28;20050;-86
2022/11/10 13:23:20;;;;;;;19.00;3.80;;;;;;;;;;5030624;28;20124;-85
2022/11/10 13:25:54;;;;;;;21.75;4.20;;;;;;;;;;5031013;28;20496;-86
2022/11/10 13:28:39;;;;;;;19.65;3.97;;;;;;;;;;5014975;28;20046;-85
2022/11/10 13:31:23;;;;;;;19.40;3.47;;;;;;;;;;5031252;28;20444;-85
2022/11/10 13:34:08;;;;;;;21.38;3.05;;;;;;;;;;5015323;28;20093;-86
2022/11/10 13:36:44;;;;;;;22.83;3.55;;;;;;;;;;5030388;28;20053;-86
2022/11/10 13:39:36;;;;;;;23.85;4.13;;;;;;;;;;5014093;28;20405;-85
2022/11/10 13:42:08;;;;;;;22.92;3.33;;;;;;;;;;5028299;28;20056;-86
2022/11/10 13:44:36;;;;;;;24.05;3.53;;;;;;;;;;5032637;28;20048;-86
2022/11/10 13:47:08;;;;;;;20.58;3.30;;;;;;;;;;5031940;28;20116;-85
2022/11/10 13:49:52;;;;;;;19.05;3.78;;;;;;;;;;5032155;28;20042;-86
2022/11/10 13:52:27;;;;;;;19.17;3.45;;;;;;;;;;5033006;28;20072;-86
2022/11/10 13:55:22;;;;;;;18.70;3.10;;;;;;;;;;5033626;28;20076;-86
2022/11/10 13:58:06;;;;;;;19.40;3.65;;;;;;;;;;4917028;29;20561;-86
2022/11/10 14:00:33;;;;;;;17.13;3.28;;;;;;;;;;4929913;29;20060;-86
2022/11/10 14:03:00;;;;;;;15.32;2.97;;;;;;;;;;4931270;29;20138;-86
2022/11/10 14:05:30;;;;;;;23.80;3.22;;;;;;;;;;4932500;29;20052;-86
2022/11/10 14:08:02;;;;;;;17.25;3.28;;;;;;;;;;4934003;29;20114;-86
2022/11/10 14:10:37;;;;;;;22.50;3.80;;;;;;;;;;4933426;29;20039;-86
2022/11/10 14:13:12;;;;;;;17.35;3.10;;;;;;;;;;4932771;29;20043;-86
2022/11/10 14:15:40;;;;;;;19.25;3.45;;;;;;;;;;4929383;29;20427;-85
2022/11/10 14:18:27;;;;;;;18.13;3.60;;;;;;;;;;4922816;29;20051;-86
2022/11/10 14:20:57;;;;;;;19.35;3.47;;;;;;;;;;4930818;29;20065;-87
2022/11/10 14:23:29;;;;;;;20.15;3.15;;;;;;;;;;4932670;29;20134;-85
2022/11/10 14:25:59;;;;;;;18.92;2.92;;;;;;;;;;4918317;29;20043;-85
2022/11/10 14:28:29;;;;;;;19.30;3.75;;;;;;;;;;4933118;29;20423;-86
2022/11/10 14:30:55;;;;;;;19.57;3.63;;;;;;;;;;4916358;29;20529;-85
2022/11/10 14:33:22;;;;;;;20.48;3.20;;;;;;;;;;4949205;28;20057;-85
2022/11/10 14:35:51;;;;;;;20.48;3.63;;;;;;;;;;5031420;28;20121;-84
2022/11/10 14:38:20;;;;;;;20.55;3.55;;;;;;;;;;5032198;28;20077;-84
2022/11/10 14:40:46;;;;;;;17.75;3.40;;;;;;;;;;5027994;28;20039;-84
2022/11/10 14:43:30;;;;;;;18.15;3.35;;;;;;;;;;5028699;28;20054;-85
2022/11/10 14:45:56;;;;;;;18.52;3.47;;;;;;;;;;5012703;28;20584;-85
2022/11/10 14:48:24;;;;;;;19.13;3.40;;;;;;;;;;5030571;28;20038;-86